Time,TemperatureF,DewpointF,PressureIn,WindDirection,WindDirectionDegrees,WindSpeedMPH,WindSpeedGustMPH,Humidity,HourlyPrecipIn,Conditions,Clouds,dailyrainin,SoftwareType,DateUTC
2017-08-21 00:10:00,74.3,71.0,30.00,South,174,0.0,6.0,89,0.00,,,0.00,weatherlink.com 1.10,2017-08-21 05:10:00,
2017-08-21 00:25:00,74.3,71.0,30.01,SSE,164,0.0,2.0,89,0.00,,,0.00,weatherlink.com 1.10,2017-08-21 05:25:00,
2017-08-21 00:41:00,73.6,70.0,30.02,SSE,165,0.0,0.0,89,0.00,,,0.00,weatherlink.com 1.10,2017-08-21 05:41:00,
2017-08-21 00:55:00,72.9,70.0,30.02,SSE,165,0.0,0.0,90,0.00,,,0.00,weatherlink.com 1.10,2017-08-21 05:55:00,
2017-08-21 01:10:00,72.8,70.0,30.02,SSE,163,0.0,0.0,91,0.00,,,0.00,weatherlink.com 1.10,2017-08-21 06:10:00,
2017-08-21 01:25:00,72.7,70.0,30.02,SE,128,0.0,1.0,91,0.00,,,0.00,weatherlink.com 1.10,2017-08-21 06:25:00,
2017-08-21 01:40:00,73.2,71.0,30.00,SSE,162,0.0,4.0,91,0.00,,,0.00,weatherlink.com 1.10,2017-08-21 06:40:00,
2017-08-21 01:56:00,73.6,71.0,30.00,SSE,165,0.0,0.0,91,0.00,,,0.00,weatherlink.com 1.10,2017-08-21 06:56:00,
2017-08-21 02:11:00,73.3,71.0,30.00,SSE,157,0.0,0.0,91,0.00,,,0.00,weatherlink.com 1.10,2017-08-21 07:11:00,
2017-08-21 02:25:00,72.8,70.0,30.01,SE,139,0.0,0.0,92,0.00,,,0.00,weatherlink.com 1.10,2017-08-21 07:25:00,
2017-08-21 02:41:00,72.3,70.0,30.01,SE,139,0.0,0.0,92,0.00,,,0.00,weatherlink.com 1.10,2017-08-21 07:41:00,
2017-08-21 02:56:00,72.5,70.0,30.02,SE,139,0.0,0.0,93,0.00,,,0.00,weatherlink.com 1.10,2017-08-21 07:56:00,
2017-08-21 03:11:00,72.6,71.0,30.02,SE,140,0.0,0.0,93,0.00,,,0.00,weatherlink.com 1.10,2017-08-21 08:11:00,
2017-08-21 03:26:00,72.5,70.0,30.02,South,175,0.0,0.0,93,0.00,,,0.00,weatherlink.com 1.10,2017-08-21 08:26:00,
2017-08-21 03:41:00,72.2,70.0,30.02,SSE,161,0.0,0.0,93,0.00,,,0.00,weatherlink.com 1.10,2017-08-21 08:41:00,
2017-08-21 03:56:00,71.4,69.0,30.02,SE,144,0.0,0.0,93,0.00,,,0.00,weatherlink.com 1.10,2017-08-21 08:56:00,
2017-08-21 04:11:00,71.1,69.0,30.02,SE,144,3.0,5.0,93,0.00,,,0.00,weatherlink.com 1.10,2017-08-21 09:11:00,
2017-08-21 04:26:00,70.9,69.0,30.02,SE,137,0.0,4.0,94,0.00,,,0.00,weatherlink.com 1.10,2017-08-21 09:26:00,
2017-08-21 04:41:00,70.6,69.0,30.02,SE,136,0.0,0.0,94,0.00,,,0.00,weatherlink.com 1.10,2017-08-21 09:41:00,
2017-08-21 04:56:00,70.4,69.0,30.03,SE,136,0.0,0.0,94,0.00,,,0.00,weatherlink.com 1.10,2017-08-21 09:56:00,
2017-08-21 05:11:00,70.3,69.0,30.04,SE,136,0.0,0.0,94,0.00,,,0.00,weatherlink.com 1.10,2017-08-21 10:11:00,
2017-08-21 05:26:00,69.9,68.0,30.04,SE,136,0.0,1.0,94,0.00,,,0.00,weatherlink.com 1.10,2017-08-21 10:26:00,
2017-08-21 05:41:00,70.5,69.0,30.03,South,175,0.0,1.0,94,0.00,,,0.00,weatherlink.com 1.10,2017-08-21 10:41:00,
2017-08-21 05:56:00,70.6,69.0,30.04,South,175,0.0,0.0,94,0.00,,,0.00,weatherlink.com 1.10,2017-08-21 10:56:00,
2017-08-21 06:11:00,70.3,69.0,30.04,South,175,0.0,0.0,94,0.00,,,0.00,weatherlink.com 1.10,2017-08-21 11:11:00,
2017-08-21 06:26:00,70.2,69.0,30.04,South,175,0.0,0.0,94,0.00,,,0.00,weatherlink.com 1.10,2017-08-21 11:26:00,
2017-08-21 06:41:00,70.4,69.0,30.04,South,171,0.0,1.0,94,0.00,,,0.00,weatherlink.com 1.10,2017-08-21 11:41:00,
2017-08-21 06:56:00,70.4,69.0,30.04,South,173,0.0,0.0,94,0.00,,,0.00,weatherlink.com 1.10,2017-08-21 11:56:00,
2017-08-21 07:11:00,70.9,69.0,30.04,South,173,0.0,0.0,94,0.00,,,0.00,weatherlink.com 1.10,2017-08-21 12:11:00,
2017-08-21 07:26:00,71.4,70.0,30.05,South,173,0.0,0.0,94,0.00,,,0.00,weatherlink.com 1.10,2017-08-21 12:26:00,
2017-08-21 07:41:00,72.3,71.0,30.05,South,173,0.0,0.0,95,0.00,,,0.00,weatherlink.com 1.10,2017-08-21 12:41:00,
2017-08-21 07:56:00,73.0,72.0,30.05,South,173,0.0,0.0,95,0.00,,,0.00,weatherlink.com 1.10,2017-08-21 12:56:00,
2017-08-21 08:11:00,73.9,72.0,30.05,South,173,0.0,0.0,94,0.00,,,0.00,weatherlink.com 1.10,2017-08-21 13:11:00,
2017-08-21 08:26:00,74.4,73.0,30.05,South,173,0.0,0.0,94,0.00,,,0.00,weatherlink.com 1.10,2017-08-21 13:26:00,
2017-08-21 08:41:00,75.1,73.0,30.04,South,173,0.0,0.0,94,0.00,,,0.00,weatherlink.com 1.10,2017-08-21 13:41:00,
2017-08-21 08:56:00,76.4,75.0,30.04,South,173,0.0,0.0,94,0.00,,,0.00,weatherlink.com 1.10,2017-08-21 13:56:00,
2017-08-21 09:11:00,77.3,75.0,30.05,South,191,0.0,3.0,93,0.00,,,0.00,weatherlink.com 1.10,2017-08-21 14:11:00,
2017-08-21 09:26:00,78.6,76.0,30.05,SW,216,0.0,6.0,91,0.00,,,0.00,weatherlink.com 1.10,2017-08-21 14:26:00,
2017-08-21 09:41:00,80.3,76.0,30.04,North,360,9.0,10.0,87,0.00,,,0.00,weatherlink.com 1.10,2017-08-21 14:41:00,
2017-08-21 09:56:00,83.1,77.0,30.04,North,360,5.0,10.0,81,0.00,,,0.00,weatherlink.com 1.10,2017-08-21 14:56:00,
2017-08-21 10:12:00,84.3,77.0,30.04,North,360,0.0,12.0,78,0.00,,,0.00,weatherlink.com 1.10,2017-08-21 15:12:00,
2017-08-21 10:26:00,85.3,77.0,30.05,SW,223,5.0,9.0,76,0.00,,,0.00,weatherlink.com 1.10,2017-08-21 15:26:00,
2017-08-21 10:42:00,85.6,76.0,30.06,North,360,10.0,17.0,73,0.00,,,0.00,weatherlink.com 1.10,2017-08-21 15:42:00,
2017-08-21 10:57:00,81.4,73.0,30.08,WNW,297,12.0,21.0,76,0.00,,,0.00,weatherlink.com 1.10,2017-08-21 15:57:00,
2017-08-21 11:12:00,77.5,72.0,30.09,NW,321,9.0,17.0,84,0.04,,,0.04,weatherlink.com 1.10,2017-08-21 16:12:00,
2017-08-21 11:27:00,77.8,73.0,30.08,North,360,0.0,6.0,86,0.04,,,0.04,weatherlink.com 1.10,2017-08-21 16:27:00,
2017-08-21 11:42:00,78.9,73.0,30.08,NW,306,9.0,14.0,81,0.04,,,0.04,weatherlink.com 1.10,2017-08-21 16:42:00,
2017-08-21 11:57:00,79.2,73.0,30.08,WNW,303,4.0,15.0,80,0.04,,,0.04,weatherlink.com 1.10,2017-08-21 16:57:00,
2017-08-21 12:12:00,80.1,72.0,30.07,NNW,331,10.0,16.0,76,0.00,,,0.04,weatherlink.com 1.10,2017-08-21 17:12:00,
2017-08-21 12:27:00,81.1,72.0,30.06,NNE,23,14.0,20.0,73,0.00,,,0.04,weatherlink.com 1.10,2017-08-21 17:27:00,
2017-08-21 12:42:00,80.5,71.0,30.05,North,5,11.0,13.0,72,0.00,,,0.04,weatherlink.com 1.10,2017-08-21 17:42:00,
2017-08-21 12:57:00,80.7,72.0,30.04,North,5,0.0,11.0,75,0.00,,,0.04,weatherlink.com 1.10,2017-08-21 17:57:00,
2017-08-21 13:12:00,79.6,71.0,30.02,North,9,0.0,11.0,75,0.00,,,0.04,weatherlink.com 1.10,2017-08-21 18:12:00,
2017-08-21 13:27:00,78.6,71.0,30.01,North,11,0.0,0.0,78,0.00,,,0.04,weatherlink.com 1.10,2017-08-21 18:27:00,
2017-08-21 13:42:00,78.5,72.0,30.02,North,11,0.0,0.0,80,0.00,,,0.04,weatherlink.com 1.10,2017-08-21 18:42:00,
2017-08-21 13:57:00,79.2,73.0,30.01,NNE,21,0.0,2.0,80,0.00,,,0.04,weatherlink.com 1.10,2017-08-21 18:57:00,
2017-08-21 14:12:00,81.0,73.0,30.01,ESE,116,4.0,8.0,76,0.00,,,0.04,weatherlink.com 1.10,2017-08-21 19:12:00,
2017-08-21 14:27:00,82.5,73.0,30.01,SE,142,0.0,8.0,72,0.00,,,0.04,weatherlink.com 1.10,2017-08-21 19:27:00,
2017-08-21 14:42:00,83.6,72.0,30.01,East,85,0.0,10.0,69,0.00,,,0.04,weatherlink.com 1.10,2017-08-21 19:42:00,
2017-08-21 14:57:00,82.9,72.0,30.00,SE,126,0.0,8.0,70,0.00,,,0.04,weatherlink.com 1.10,2017-08-21 19:57:00,
2017-08-21 15:12:00,82.8,72.0,30.00,South,188,0.0,3.0,70,0.00,,,0.04,weatherlink.com 1.10,2017-08-21 20:12:00,
2017-08-21 15:27:00,82.9,72.0,29.99,SE,146,0.0,12.0,70,0.00,,,0.04,weatherlink.com 1.10,2017-08-21 20:27:00,
2017-08-21 15:42:00,83.9,72.0,29.99,South,183,6.0,10.0,68,0.00,,,0.04,weatherlink.com 1.10,2017-08-21 20:42:00,
2017-08-21 15:57:00,84.1,71.0,29.99,SSE,148,0.0,7.0,65,0.00,,,0.04,weatherlink.com 1.10,2017-08-21 20:57:00,
2017-08-21 16:12:00,85.0,73.0,29.98,SSE,152,0.0,6.0,68,0.00,,,0.04,weatherlink.com 1.10,2017-08-21 21:12:00,
2017-08-21 16:27:00,85.9,71.0,29.98,ESE,119,0.0,10.0,62,0.00,,,0.04,weatherlink.com 1.10,2017-08-21 21:27:00,
2017-08-21 16:42:00,84.7,74.0,29.98,SSE,158,0.0,11.0,70,0.00,,,0.04,weatherlink.com 1.10,2017-08-21 21:42:00,
2017-08-21 16:57:00,84.1,75.0,29.98,South,179,0.0,10.0,73,0.00,,,0.04,weatherlink.com 1.10,2017-08-21 21:57:00,
2017-08-21 17:12:00,83.7,74.0,29.97,South,170,0.0,11.0,73,0.00,,,0.04,weatherlink.com 1.10,2017-08-21 22:12:00,
2017-08-21 17:27:00,83.6,75.0,29.98,SE,142,0.0,7.0,75,0.00,,,0.04,weatherlink.com 1.10,2017-08-21 22:27:00,
2017-08-21 17:42:00,83.4,76.0,29.98,SSE,167,0.0,10.0,77,0.00,,,0.04,weatherlink.com 1.10,2017-08-21 22:42:00,
2017-08-21 17:57:00,82.5,75.0,29.99,South,173,14.0,14.0,78,0.00,,,0.04,weatherlink.com 1.10,2017-08-21 22:57:00,
2017-08-21 18:12:00,82.0,75.0,29.99,North,360,0.0,8.0,79,0.00,,,0.04,weatherlink.com 1.10,2017-08-21 23:12:00,
2017-08-21 18:27:00,81.6,75.0,29.98,SW,217,0.0,9.0,79,0.00,,,0.04,weatherlink.com 1.10,2017-08-21 23:27:00,
2017-08-21 18:42:00,81.3,75.0,29.99,South,169,0.0,9.0,80,0.00,,,0.04,weatherlink.com 1.10,2017-08-21 23:42:00,
2017-08-21 18:57:00,80.7,74.0,29.98,SSE,154,8.0,8.0,81,0.00,,,0.04,weatherlink.com 1.10,2017-08-21 23:57:00,
2017-08-21 19:12:00,79.4,72.0,29.98,South,190,0.0,12.0,78,0.00,,,0.04,weatherlink.com 1.10,2017-08-22 00:12:00,
2017-08-21 19:27:00,78.6,72.0,29.98,SSW,212,1.0,10.0,80,0.00,,,0.04,weatherlink.com 1.10,2017-08-22 00:27:00,
2017-08-21 19:42:00,77.8,72.0,29.97,SSE,159,0.0,5.0,82,0.00,,,0.04,weatherlink.com 1.10,2017-08-22 00:42:00,
2017-08-21 19:57:00,77.4,72.0,29.97,North,360,0.0,8.0,82,0.00,,,0.04,weatherlink.com 1.10,2017-08-22 00:57:00,
2017-08-21 20:12:00,76.9,71.0,29.97,SE,144,0.0,7.0,83,0.00,,,0.04,weatherlink.com 1.10,2017-08-22 01:12:00,
2017-08-21 20:27:00,76.4,72.0,29.97,SSE,167,0.0,0.0,85,0.00,,,0.04,weatherlink.com 1.10,2017-08-22 01:27:00,
2017-08-21 20:42:00,75.8,71.0,29.97,South,191,0.0,0.0,86,0.00,,,0.04,weatherlink.com 1.10,2017-08-22 01:42:00,
2017-08-21 20:57:00,75.1,71.0,29.96,South,171,0.0,2.0,88,0.00,,,0.04,weatherlink.com 1.10,2017-08-22 01:57:00,
2017-08-21 21:12:00,74.9,72.0,29.97,South,191,0.0,6.0,89,0.00,,,0.04,weatherlink.com 1.10,2017-08-22 02:12:00,
2017-08-21 21:27:00,75.2,72.0,29.96,SW,228,0.0,9.0,89,0.00,,,0.04,weatherlink.com 1.10,2017-08-22 02:27:00,
2017-08-21 21:42:00,75.1,72.0,29.96,South,180,0.0,7.0,89,0.00,,,0.04,weatherlink.com 1.10,2017-08-22 02:42:00,
2017-08-21 21:57:00,74.8,71.0,29.96,SSE,166,0.0,2.0,89,0.00,,,0.04,weatherlink.com 1.10,2017-08-22 02:57:00,
2017-08-21 22:20:00,74.6,71.0,29.96,SSE,161,5.0,9.0,89,0.00,,,0.04,weatherlink.com 1.10,2017-08-22 03:20:00,
2017-08-21 22:32:00,74.7,71.0,29.95,South,180,0.0,3.0,88,0.00,,,0.04,weatherlink.com 1.10,2017-08-22 03:32:00,
2017-08-21 22:42:00,74.4,71.0,29.94,South,186,0.0,1.0,88,0.00,,,0.04,weatherlink.com 1.10,2017-08-22 03:42:00,
2017-08-21 22:58:00,73.8,70.0,29.93,South,190,0.0,7.0,88,0.00,,,0.04,weatherlink.com 1.10,2017-08-22 03:58:00,